Terminal Aerodrome Forecast
Issued by NWS

Home | Current Version | Previous Version | Text Only | Print | Product List | Glossary On
Versions: 1 2 3 4 5 6 7 8 9 10 11 12 13 14 15 16 17 18 19 20 21 22 23
959
FTAK31 PAFA 120523
TAFAGA
TAF
PAGA 120523Z 1206/1306 26004KT P6SM SKC
     FM120800 06020KT P6SM VCSH OVC060
     FM121600 02003KT 5SM -SHSN BR OVC050
     FM130200 02003KT P6SM BKN100=

USA.gov is the U.S. government's official web portal to all federal, state and local government web resources and services.